Time;durP1;ratioP1;P1;durP2;ratioP2;P2;SDS_P1;SDS_P2;PMS_P1;PMS_P2;Temp;Humidity;BMP_temperature;BMP_pressure;BME280_temperature;BME280_humidity;BME280_pressure;Samples;Min_cycle;Max_cycle;Signal;HPM_P1;HPM_P2
2023/04/15 00:00:27;;;;;;;;;0.00;0.00;;;;;;;;5112700;28;8797;-68
2023/04/15 00:02:53;;;;;;;;;0.00;0.00;;;;;;;;5112447;28;8804;-70
2023/04/15 00:05:18;;;;;;;;;1.00;0.25;;;;;;;;5112525;28;11437;-68
2023/04/15 00:07:45;;;;;;;;;0.00;0.00;;;;;;;;5112500;28;8904;-68
2023/04/15 00:10:11;;;;;;;;;1.50;1.00;;;;;;;;5112378;27;8844;-69
2023/04/15 00:12:36;;;;;;;;;0.00;0.00;;;;;;;;5111316;28;12188;-68
2023/04/15 00:15:02;;;;;;;;;2.50;0.25;;;;;;;;5112173;28;8925;-68
2023/04/15 00:17:27;;;;;;;;;1.25;0.00;;;;;;;;5112185;27;8828;-69
2023/04/15 00:19:53;;;;;;;;;0.00;0.00;;;;;;;;5112278;28;8801;-69
2023/04/15 00:22:18;;;;;;;;;1.00;0.00;;;;;;;;5112186;28;8816;-68
2023/04/15 00:24:43;;;;;;;;;1.00;0.25;;;;;;;;5112212;28;8904;-69
2023/04/15 00:27:09;;;;;;;;;1.00;0.00;;;;;;;;5112301;28;8789;-69
2023/04/15 00:29:34;;;;;;;;;0.50;0.00;;;;;;;;5111821;28;8793;-69
2023/04/15 00:32:00;;;;;;;;;0.50;0.00;;;;;;;;5112084;27;9888;-69
2023/04/15 00:34:26;;;;;;;;;0.00;0.00;;;;;;;;5112062;28;8817;-68
2023/04/15 00:36:52;;;;;;;;;4.00;0.50;;;;;;;;5112177;28;8824;-68
2023/04/15 00:39:17;;;;;;;;;2.50;1.00;;;;;;;;5111922;28;11441;-67
2023/04/15 00:41:43;;;;;;;;;0.00;0.00;;;;;;;;5111995;28;8782;-68
2023/04/15 00:44:09;;;;;;;;;1.00;0.00;;;;;;;;5111888;28;8828;-68
2023/04/15 00:46:35;;;;;;;;;3.00;0.00;;;;;;;;5111567;28;8781;-68
2023/04/15 00:49:02;;;;;;;;;0.00;0.00;;;;;;;;5109872;28;11479;-67
2023/04/15 00:51:28;;;;;;;;;0.00;0.00;;;;;;;;5111857;28;11512;-68
2023/04/15 00:53:53;;;;;;;;;0.00;0.00;;;;;;;;5111681;27;11505;-68
2023/04/15 00:56:20;;;;;;;;;1.50;0.00;;;;;;;;5111932;28;8801;-68
2023/04/15 00:58:45;;;;;;;;;0.75;0.75;;;;;;;;5110640;28;8808;-67
2023/04/15 01:01:11;;;;;;;;;0.00;0.00;;;;;;;;5111607;28;11552;-68
2023/04/15 01:03:36;;;;;;;;;3.50;0.75;;;;;;;;5111231;28;8790;-67
2023/04/15 01:06:01;;;;;;;;;3.00;1.00;;;;;;;;5111409;28;8785;-67
2023/04/15 01:08:27;;;;;;;;;0.00;0.00;;;;;;;;5111423;28;8820;-68
2023/04/15 01:10:55;;;;;;;;;0.00;0.00;;;;;;;;5111586;28;8943;-67
2023/04/15 01:13:21;;;;;;;;;1.00;0.00;;;;;;;;5127095;27;9949;-68
2023/04/15 01:15:47;;;;;;;;;1.00;1.00;;;;;;;;5111217;28;11447;-67
2023/04/15 01:18:13;;;;;;;;;0.00;0.00;;;;;;;;5111078;28;11456;-68
2023/04/15 01:20:38;;;;;;;;;1.50;0.00;;;;;;;;5110006;28;8959;-68
2023/04/15 01:23:04;;;;;;;;;0.00;0.00;;;;;;;;5110535;28;11539;-68
2023/04/15 01:25:31;;;;;;;;;1.00;0.00;;;;;;;;5111245;28;9562;-68
2023/04/15 01:27:57;;;;;;;;;0.00;0.00;;;;;;;;5111002;28;11445;-69
2023/04/15 01:30:22;;;;;;;;;1.75;0.00;;;;;;;;5127011;27;11511;-68
2023/04/15 01:32:47;;;;;;;;;0.00;0.00;;;;;;;;5111279;28;9627;-68
2023/04/15 01:35:13;;;;;;;;;1.00;1.00;;;;;;;;5111052;27;8863;-68
2023/04/15 01:37:38;;;;;;;;;0.00;0.00;;;;;;;;5110967;28;8781;-67
2023/04/15 01:40:03;;;;;;;;;1.00;0.00;;;;;;;;5110938;28;8778;-68
2023/04/15 01:42:29;;;;;;;;;1.00;0.00;;;;;;;;5110840;28;8889;-69
2023/04/15 01:44:54;;;;;;;;;0.00;0.00;;;;;;;;5110780;28;8908;-68
2023/04/15 01:47:20;;;;;;;;;1.25;0.25;;;;;;;;5110734;28;8793;-68
2023/04/15 01:49:45;;;;;;;;;0.50;0.00;;;;;;;;5110861;28;8801;-68
2023/04/15 01:52:10;;;;;;;;;0.00;0.00;;;;;;;;5110730;28;8793;-68
2023/04/15 01:54:36;;;;;;;;;1.50;0.00;;;;;;;;5110767;28;8821;-67
2023/04/15 01:57:01;;;;;;;;;0.00;0.00;;;;;;;;5110506;28;8793;-68
2023/04/15 01:59:28;;;;;;;;;0.00;0.00;;;;;;;;5109685;28;8777;-68
2023/04/15 02:01:54;;;;;;;;;0.75;0.75;;;;;;;;5110031;28;9029;-68
2023/04/15 02:04:19;;;;;;;;;0.00;0.00;;;;;;;;5110246;28;11419;-67
2023/04/15 02:06:45;;;;;;;;;0.25;0.00;;;;;;;;5108743;28;12279;-68
2023/04/15 02:09:10;;;;;;;;;0.00;0.00;;;;;;;;5110627;28;8951;-68
2023/04/15 02:11:36;;;;;;;;;0.00;0.00;;;;;;;;5110290;28;9082;-68
2023/04/15 02:14:03;;;;;;;;;1.00;0.00;;;;;;;;5109983;28;8956;-68
2023/04/15 02:16:28;;;;;;;;;1.00;1.00;;;;;;;;5110356;28;8793;-68
2023/04/15 02:18:53;;;;;;;;;0.00;0.00;;;;;;;;5109609;28;11418;-68
2023/04/15 02:21:18;;;;;;;;;0.00;0.00;;;;;;;;5110058;28;8793;-68
2023/04/15 02:23:45;;;;;;;;;0.00;0.00;;;;;;;;5110039;28;9496;-68
2023/04/15 02:26:11;;;;;;;;;0.25;0.25;;;;;;;;5110255;28;9599;-68
2023/04/15 02:28:37;;;;;;;;;1.25;0.00;;;;;;;;5109965;28;11447;-67
2023/04/15 02:31:06;;;;;;;;;0.00;0.00;;;;;;;;5109852;28;9538;-68
2023/04/15 02:33:32;;;;;;;;;1.75;0.00;;;;;;;;5109562;28;8812;-68
2023/04/15 02:35:58;;;;;;;;;0.00;0.00;;;;;;;;5109181;28;11580;-69
2023/04/15 02:38:23;;;;;;;;;4.00;0.00;;;;;;;;5108483;28;9559;-68
2023/04/15 02:40:49;;;;;;;;;2.00;0.00;;;;;;;;5109697;28;10862;-68
2023/04/15 02:43:15;;;;;;;;;1.00;0.00;;;;;;;;5108202;28;8966;-67
2023/04/15 02:45:42;;;;;;;;;1.00;0.00;;;;;;;;5109659;28;8829;-67
2023/04/15 02:48:07;;;;;;;;;0.00;0.00;;;;;;;;5109547;28;11437;-67
2023/04/15 02:50:33;;;;;;;;;1.50;0.00;;;;;;;;5109301;28;11562;-67
2023/04/15 02:53:00;;;;;;;;;0.00;0.00;;;;;;;;5109119;28;9617;-68
2023/04/15 02:55:25;;;;;;;;;0.00;0.00;;;;;;;;5109464;28;8825;-68
2023/04/15 02:57:51;;;;;;;;;1.00;0.00;;;;;;;;5109410;28;11549;-68
2023/04/15 03:00:16;;;;;;;;;0.50;0.00;;;;;;;;5109541;28;8805;-68
2023/04/15 03:02:41;;;;;;;;;0.00;0.00;;;;;;;;5107727;28;8877;-67
2023/04/15 03:05:11;;;;;;;;;0.00;0.00;;;;;;;;5109405;28;8813;-67
2023/04/15 03:07:36;;;;;;;;;1.00;0.00;;;;;;;;5109721;28;9682;-67
2023/04/15 03:10:02;;;;;;;;;1.00;0.00;;;;;;;;5108707;28;11461;-67
2023/04/15 03:12:29;;;;;;;;;0.75;0.00;;;;;;;;5109148;28;8785;-67
2023/04/15 03:14:54;;;;;;;;;0.00;0.00;;;;;;;;5109032;28;8925;-67
2023/04/15 03:17:19;;;;;;;;;0.00;0.00;;;;;;;;5109267;28;11509;-67
2023/04/15 03:19:45;;;;;;;;;0.00;0.00;;;;;;;;5109754;28;8801;-67
2023/04/15 03:22:10;;;;;;;;;1.00;0.00;;;;;;;;5108081;28;8835;-66
2023/04/15 03:24:35;;;;;;;;;0.00;0.00;;;;;;;;5109324;28;8811;-66
2023/04/15 03:27:01;;;;;;;;;1.00;0.00;;;;;;;;5108658;28;8813;-66
2023/04/15 03:29:26;;;;;;;;;0.00;0.00;;;;;;;;5109252;28;8790;-66
2023/04/15 03:31:52;;;;;;;;;0.00;0.00;;;;;;;;5108935;28;8789;-66
2023/04/15 03:34:17;;;;;;;;;0.00;0.00;;;;;;;;5108863;28;8817;-67
2023/04/15 03:36:42;;;;;;;;;0.00;0.00;;;;;;;;5109073;28;8772;-67
2023/04/15 03:39:07;;;;;;;;;0.00;0.00;;;;;;;;5109033;28;9545;-66
2023/04/15 03:41:33;;;;;;;;;1.75;0.00;;;;;;;;5108958;28;8896;-66
2023/04/15 03:43:58;;;;;;;;;0.75;0.00;;;;;;;;5108890;28;8777;-66
2023/04/15 03:46:23;;;;;;;;;0.00;0.00;;;;;;;;5107086;28;8805;-66
2023/04/15 03:48:48;;;;;;;;;0.00;0.00;;;;;;;;5107407;28;8828;-66
2023/04/15 03:51:14;;;;;;;;;0.00;0.00;;;;;;;;5108862;28;8823;-67
2023/04/15 03:53:39;;;;;;;;;0.00;0.00;;;;;;;;5107222;28;8828;-67
2023/04/15 03:56:04;;;;;;;;;1.00;0.00;;;;;;;;5108795;28;8809;-67
2023/04/15 03:58:30;;;;;;;;;0.00;0.00;;;;;;;;5108930;28;8773;-67
2023/04/15 04:00:55;;;;;;;;;0.00;0.00;;;;;;;;5107425;28;8844;-67
2023/04/15 04:03:20;;;;;;;;;0.00;0.00;;;;;;;;5108684;28;8878;-67
2023/04/15 04:05:45;;;;;;;;;0.00;0.00;;;;;;;;5108796;28;8920;-67
2023/04/15 04:08:12;;;;;;;;;1.00;0.00;;;;;;;;5108543;28;8805;-67
2023/04/15 04:10:38;;;;;;;;;1.00;0.00;;;;;;;;5108759;28;8912;-67
2023/04/15 04:13:03;;;;;;;;;0.00;0.00;;;;;;;;5108720;28;11547;-67
2023/04/15 04:15:28;;;;;;;;;2.50;0.00;;;;;;;;5108578;28;8817;-67
2023/04/15 04:17:54;;;;;;;;;0.00;0.00;;;;;;;;5104386;28;8827;-68
2023/04/15 04:20:20;;;;;;;;;1.25;0.00;;;;;;;;5088395;28;8779;-67
2023/04/15 04:22:45;;;;;;;;;0.75;0.00;;;;;;;;5097421;28;8877;-68
2023/04/15 04:25:10;;;;;;;;;0.00;0.00;;;;;;;;5128207;27;8914;-68
2023/04/15 04:27:36;;;;;;;;;0.00;0.00;;;;;;;;5110514;28;8801;-68
2023/04/15 04:30:01;;;;;;;;;0.00;0.00;;;;;;;;5092003;28;8796;-69
2023/04/15 04:32:26;;;;;;;;;0.25;0.25;;;;;;;;5091868;28;8800;-71
2023/04/15 04:34:51;;;;;;;;;0.00;0.00;;;;;;;;5094384;28;8823;-70
2023/04/15 04:37:17;;;;;;;;;0.00;0.00;;;;;;;;5091757;28;8803;-68
2023/04/15 04:39:42;;;;;;;;;0.00;0.00;;;;;;;;5091972;28;8792;-70
2023/04/15 04:42:07;;;;;;;;;2.00;0.00;;;;;;;;5094869;28;8787;-79
2023/04/15 04:44:33;;;;;;;;;0.00;0.00;;;;;;;;5091886;28;8807;-74
2023/04/15 04:46:58;;;;;;;;;0.00;0.00;;;;;;;;5091927;28;8772;-72
2023/04/15 04:49:23;;;;;;;;;0.00;0.00;;;;;;;;5091599;28;8780;-72
2023/04/15 04:51:48;;;;;;;;;0.00;0.00;;;;;;;;5091746;28;9528;-70
2023/04/15 04:54:14;;;;;;;;;0.00;0.00;;;;;;;;5110468;28;8809;-69
2023/04/15 04:56:39;;;;;;;;;1.75;1.75;;;;;;;;5112356;28;8785;-67
2023/04/15 04:59:05;;;;;;;;;0.75;0.00;;;;;;;;5112418;28;8835;-70
2023/04/15 05:01:31;;;;;;;;;1.00;0.00;;;;;;;;5112264;28;8797;-70
2023/04/15 05:03:56;;;;;;;;;0.00;0.00;;;;;;;;5110653;28;11585;-69
2023/04/15 05:06:21;;;;;;;;;0.00;0.00;;;;;;;;5111851;28;8785;-68
2023/04/15 05:08:47;;;;;;;;;0.00;0.00;;;;;;;;5112073;28;8828;-71
2023/04/15 05:11:12;;;;;;;;;0.00;0.00;;;;;;;;5111757;28;9763;-73
2023/04/15 05:13:37;;;;;;;;;0.00;0.00;;;;;;;;5110646;28;8845;-70
2023/04/15 05:16:06;;;;;;;;;0.00;0.00;;;;;;;;5091743;28;9522;-73
2023/04/15 05:18:31;;;;;;;;;0.00;0.00;;;;;;;;5090156;28;9011;-71
2023/04/15 05:20:57;;;;;;;;;0.00;0.00;;;;;;;;5089240;28;11531;-71
2023/04/15 05:23:22;;;;;;;;;0.00;0.00;;;;;;;;5101285;28;9518;-72
2023/04/15 05:25:47;;;;;;;;;1.00;0.00;;;;;;;;5108713;28;8808;-73
2023/04/15 05:28:13;;;;;;;;;0.00;0.00;;;;;;;;5110302;28;8813;-72
2023/04/15 05:30:38;;;;;;;;;0.00;0.00;;;;;;;;5110015;28;8794;-72
2023/04/15 05:33:03;;;;;;;;;0.00;0.00;;;;;;;;5110318;28;8789;-71
2023/04/15 05:35:29;;;;;;;;;0.00;0.00;;;;;;;;5111362;28;8797;-71
2023/04/15 05:37:54;;;;;;;;;0.00;0.00;;;;;;;;5111230;28;9731;-72
2023/04/15 05:40:19;;;;;;;;;0.00;0.00;;;;;;;;5111451;28;8800;-70
2023/04/15 05:42:45;;;;;;;;;0.00;0.00;;;;;;;;5098368;28;8832;-71
2023/04/15 05:45:10;;;;;;;;;0.50;0.00;;;;;;;;5090834;28;8838;-70
2023/04/15 05:47:36;;;;;;;;;0.00;0.00;;;;;;;;5090663;28;8783;-67
2023/04/15 05:50:02;;;;;;;;;0.00;0.00;;;;;;;;5091159;28;8795;-68
2023/04/15 05:52:27;;;;;;;;;0.00;0.00;;;;;;;;5089340;28;8833;-68
2023/04/15 05:54:52;;;;;;;;;0.00;0.00;;;;;;;;5091419;28;8828;-68
2023/04/15 05:57:17;;;;;;;;;0.00;0.00;;;;;;;;5091076;28;8911;-68
2023/04/15 05:59:43;;;;;;;;;0.00;0.00;;;;;;;;5091031;28;8780;-68
2023/04/15 06:02:09;;;;;;;;;1.00;0.00;;;;;;;;5087790;28;9009;-69
2023/04/15 06:04:34;;;;;;;;;1.50;1.00;;;;;;;;5090310;28;8800;-69
2023/04/15 06:07:00;;;;;;;;;2.50;0.00;;;;;;;;5090667;28;8815;-69
2023/04/15 06:09:25;;;;;;;;;1.75;1.00;;;;;;;;5090310;28;8804;-68
2023/04/15 06:11:50;;;;;;;;;0.50;0.50;;;;;;;;5090386;28;8796;-71
2023/04/15 06:14:16;;;;;;;;;6.00;1.00;;;;;;;;5088161;28;8816;-69
2023/04/15 06:16:41;;;;;;;;;3.00;1.00;;;;;;;;5088567;28;8941;-69
2023/04/15 06:19:06;;;;;;;;;1.00;1.00;;;;;;;;5090023;28;8800;-71
2023/04/15 06:21:31;;;;;;;;;1.00;1.00;;;;;;;;5103948;28;8849;-70
